Time;durP1;ratioP1;P1;durP2;ratioP2;P2;SDS_P1;SDS_P2;PMS_P1;PMS_P2;Temp;Humidity;BMP_temperature;BMP_pressure;BME280_temperature;BME280_humidity;BME280_pressure;Samples;Min_cycle;Max_cycle;Signal;HPM_P1;HPM_P2
2021/03/11 00:01:20;;;;;;;10.88;8.80;;;;;;;2.34;96.50;94798.69;6218787;23;20191;-89
2021/03/11 00:03:46;;;;;;;12.18;9.32;;;;;;;2.32;96.58;94810.06;6218537;23;20534;-89
2021/03/11 00:06:13;;;;;;;11.65;8.93;;;;;;;2.39;95.91;94799.28;6219011;23;20163;-89
2021/03/11 00:08:40;;;;;;;8.98;8.05;;;;;;;2.33;96.15;94804.78;6218361;23;20506;-89
2021/03/11 00:11:07;;;;;;;13.07;9.85;;;;;;;2.36;96.47;94802.03;6218696;23;20176;-88
2021/03/11 00:13:33;;;;;;;14.60;9.15;;;;;;;2.37;96.22;94806.28;6218472;23;20221;-89
2021/03/11 00:16:00;;;;;;;13.57;10.60;;;;;;;2.37;95.87;94798.53;6218218;23;20167;-89
2021/03/11 00:18:26;;;;;;;13.20;8.70;;;;;;;2.31;95.93;94791.06;6218415;23;20177;-88
2021/03/11 00:20:53;;;;;;;11.25;7.80;;;;;;;2.29;96.12;94792.06;6220747;23;20191;-86
2021/03/11 00:23:19;;;;;;;13.63;10.10;;;;;;;2.31;95.43;94796.25;6224136;23;20611;-88
2021/03/11 00:25:46;;;;;;;11.68;8.95;;;;;;;2.29;95.88;94797.25;6219487;23;20197;-88
2021/03/11 00:28:13;;;;;;;12.32;8.02;;;;;;;2.25;96.42;94794.00;6220413;23;20229;-89
2021/03/11 00:30:39;;;;;;;12.57;8.98;;;;;;;2.27;96.53;94784.38;6219653;23;20167;-89
2021/03/11 00:33:06;;;;;;;11.90;8.95;;;;;;;2.29;95.95;94786.88;6219259;23;20167;-88
2021/03/11 00:35:32;;;;;;;12.55;9.75;;;;;;;2.24;96.08;94784.56;6219581;23;20172;-89
2021/03/11 00:37:59;;;;;;;9.98;8.90;;;;;;;2.17;96.72;94784.06;6219984;23;20173;-88
2021/03/11 00:40:25;;;;;;;11.73;8.82;;;;;;;2.19;96.65;94783.97;6223113;23;20218;-89
2021/03/11 00:42:53;;;;;;;14.18;9.20;;;;;;;2.17;96.96;94786.63;6219492;23;20219;-89
2021/03/11 00:45:19;;;;;;;12.18;9.00;;;;;;;2.18;96.92;94784.88;6220570;23;20606;-89
2021/03/11 00:47:46;;;;;;;12.00;8.88;;;;;;;2.24;97.25;94788.91;6220846;23;20173;-89
2021/03/11 00:50:16;;;;;;;13.35;8.40;;;;;;;2.35;97.32;94784.81;6220304;23;20202;-88
2021/03/11 00:52:42;;;;;;;12.15;9.48;;;;;;;2.29;95.64;94784.31;6220380;23;20171;-89
2021/03/11 00:55:11;;;;;;;10.25;7.88;;;;;;;2.29;95.52;94790.31;6219674;23;20220;-89
2021/03/11 00:57:38;;;;;;;10.93;8.80;;;;;;;2.26;95.48;94789.66;6219687;23;20167;-89
2021/03/11 01:00:08;;;;;;;12.85;8.13;;;;;;;2.17;95.43;94783.22;6220026;23;20481;-89
2021/03/11 01:02:34;;;;;;;11.40;7.53;;;;;;;2.20;95.48;94784.81;6219627;23;20177;-89
2021/03/11 01:05:01;;;;;;;10.38;8.05;;;;;;;2.13;95.51;94779.97;6219943;23;20543;-90
2021/03/11 01:07:27;;;;;;;11.40;8.30;;;;;;;2.02;95.23;94781.44;6219476;23;20175;-88
2021/03/11 01:09:54;;;;;;;9.65;8.63;;;;;;;1.96;95.27;94790.38;6220007;23;20187;-90
2021/03/11 01:12:20;;;;;;;10.00;7.10;;;;;;;1.91;95.25;94770.84;6219417;23;20512;-89
2021/03/11 01:14:47;;;;;;;16.67;8.23;;;;;;;1.86;95.26;94784.84;6219820;23;20228;-89
2021/03/11 01:17:14;;;;;;;13.35;7.75;;;;;;;1.83;95.56;94785.00;6220129;23;20172;-89
2021/03/11 01:19:41;;;;;;;10.50;8.07;;;;;;;1.79;96.04;94775.75;6219112;23;20417;-89
2021/03/11 01:22:07;;;;;;;10.00;8.35;;;;;;;1.79;95.95;94778.34;6220340;23;20607;-88
2021/03/11 01:24:34;;;;;;;13.20;8.82;;;;;;;1.75;95.72;94788.94;6219626;23;20171;-89
2021/03/11 01:27:00;;;;;;;12.30;7.40;;;;;;;1.80;96.16;94797.28;6220022;23;20183;-89
2021/03/11 01:29:27;;;;;;;7.35;6.57;;;;;;;1.81;96.00;94804.13;6219929;23;20498;-90
2021/03/11 01:31:53;;;;;;;10.50;7.80;;;;;;;1.89;96.66;94796.78;6219835;23;20481;-88
2021/03/11 01:34:20;;;;;;;10.63;7.18;;;;;;;1.93;95.87;94794.88;6219297;23;20246;-88
2021/03/11 01:36:47;;;;;;;10.80;7.57;;;;;;;1.97;95.28;94796.38;6219512;23;20209;-90
2021/03/11 01:39:13;;;;;;;8.90;6.68;;;;;;;2.02;94.94;94794.38;6219462;23;20250;-89
2021/03/11 01:41:40;;;;;;;11.75;7.93;;;;;;;2.06;95.41;94803.69;6218702;23;20202;-89
2021/03/11 01:44:07;;;;;;;10.32;6.97;;;;;;;2.07;94.17;94800.16;6219238;23;20253;-89
2021/03/11 01:46:33;;;;;;;6.88;6.03;;;;;;;2.11;94.09;94802.50;6219049;23;20163;-88
2021/03/11 01:49:00;;;;;;;9.43;7.00;;;;;;;2.10;92.87;94805.19;6218868;23;20221;-89
2021/03/11 01:51:47;;;;;;;8.02;6.13;;;;;;;2.11;93.16;94801.66;6219654;23;20203;-88
2021/03/11 01:54:13;;;;;;;7.38;6.68;;;;;;;2.22;93.40;94799.34;6218891;23;20170;-89
2021/03/11 01:56:41;;;;;;;10.60;7.45;;;;;;;2.18;92.93;94803.84;6218649;23;20170;-90
2021/03/11 01:59:08;;;;;;;12.82;6.32;;;;;;;2.29;92.43;94805.84;6219304;23;20676;-89
2021/03/11 02:01:34;;;;;;;7.45;6.20;;;;;;;2.17;92.30;94798.75;6219097;23;20190;-89
2021/03/11 02:04:00;;;;;;;8.80;7.65;;;;;;;2.16;91.73;94802.25;6219145;23;20163;-88
2021/03/11 02:06:27;;;;;;;6.60;6.00;;;;;;;2.16;91.86;94795.31;6219551;23;20171;-89
2021/03/11 02:12:26;;;;;;;9.35;6.80;;;;;;;2.25;92.21;94796.56;6219554;23;20169;-89
2021/03/11 02:14:59;;;;;;;6.45;5.30;;;;;;;2.27;92.06;94796.50;6219830;23;20190;-89
2021/03/11 02:17:31;;;;;;;7.07;5.30;;;;;;;2.25;91.52;94790.56;6219716;23;20529;-89
2021/03/11 02:20:24;;;;;;;7.50;6.30;;;;;;;2.22;91.14;94803.69;6218840;23;20199;-89
2021/03/11 02:23:35;;;;;;;8.43;6.93;;;;;;;2.14;90.32;94811.84;6219046;23;20225;-88
2021/03/11 02:26:12;;;;;;;7.90;5.55;;;;;;;2.16;90.59;94810.84;6156911;23;20182;-89
2021/03/11 02:28:53;;;;;;;7.53;5.80;;;;;;;2.07;90.00;94816.53;6156879;23;20246;-89
2021/03/11 02:31:21;;;;;;;5.93;4.50;;;;;;;2.05;89.50;94817.53;6157201;23;20709;-89
2021/03/11 02:33:49;;;;;;;5.47;4.97;;;;;;;1.94;88.98;94825.84;6156722;23;20187;-88
2021/03/11 02:36:16;;;;;;;5.40;4.60;;;;;;;1.98;89.30;94829.94;6156465;23;20247;-89
2021/03/11 02:38:44;;;;;;;6.57;5.97;;;;;;;1.97;89.62;94830.84;6156613;23;20172;-89
2021/03/11 02:41:13;;;;;;;8.07;5.60;;;;;;;1.89;89.44;94832.19;6156320;23;20200;-88
2021/03/11 02:43:40;;;;;;;6.55;5.35;;;;;;;1.88;89.19;94833.09;6156501;23;20172;-88
2021/03/11 02:46:08;;;;;;;10.05;7.03;;;;;;;1.90;89.44;94833.84;6156389;23;20177;-88
2021/03/11 02:48:36;;;;;;;7.18;4.93;;;;;;;1.96;89.88;94833.53;6156677;23;20709;-89
2021/03/11 02:51:03;;;;;;;10.18;6.85;;;;;;;2.00;88.76;94842.78;6156200;23;20287;-89
2021/03/11 02:53:30;;;;;;;9.00;6.05;;;;;;;1.98;89.59;94842.03;6156374;23;20223;-89
2021/03/11 02:55:58;;;;;;;6.80;6.13;;;;;;;2.05;89.73;94833.06;6168777;23;20480;-88
2021/03/11 02:58:26;;;;;;;14.13;6.65;;;;;;;2.00;89.36;94846.22;6218461;23;20677;-87
2021/03/11 03:00:54;;;;;;;21.75;7.40;;;;;;;1.88;88.17;94853.78;6218994;23;20262;-88
2021/03/11 03:03:22;;;;;;;12.25;6.45;;;;;;;1.86;88.87;94849.53;6218688;23;20179;-89
2021/03/11 03:05:51;;;;;;;11.40;7.65;;;;;;;1.77;89.36;94850.00;6218572;23;20181;-88
2021/03/11 03:08:19;;;;;;;7.50;6.00;;;;;;;1.75;88.07;94859.59;6218238;23;20182;-89
2021/03/11 03:10:47;;;;;;;4.93;4.43;;;;;;;1.78;88.79;94853.44;6218418;23;20493;-89
2021/03/11 03:13:17;;;;;;;11.02;6.60;;;;;;;1.72;88.47;94864.91;6219194;23;20182;-88
2021/03/11 03:15:44;;;;;;;5.85;4.82;;;;;;;1.70;87.36;94865.91;6218220;23;20167;-88
2021/03/11 03:18:13;;;;;;;7.97;5.60;;;;;;;1.57;87.30;94872.63;6218378;23;20507;-89
2021/03/11 03:20:41;;;;;;;6.43;4.75;;;;;;;1.53;87.41;94866.78;6218636;23;20221;-89
2021/03/11 03:23:09;;;;;;;11.40;6.45;;;;;;;1.51;87.38;94872.03;6218464;23;20507;-88
2021/03/11 03:25:35;;;;;;;9.15;5.72;;;;;;;1.44;88.61;94874.97;6217911;23;20613;-88
2021/03/11 03:28:02;;;;;;;8.07;6.50;;;;;;;1.39;87.87;94869.19;6218770;23;20175;-88
2021/03/11 03:30:28;;;;;;;6.70;5.88;;;;;;;1.53;89.17;94871.94;6218771;23;20173;-89
2021/03/11 03:32:55;;;;;;;8.20;5.57;;;;;;;1.51;88.42;94868.59;6218527;23;20170;-88
2021/03/11 03:35:22;;;;;;;14.48;6.80;;;;;;;1.41;88.30;94867.34;6218824;23;20179;-88
2021/03/11 03:37:50;;;;;;;19.65;6.25;;;;;;;1.29;88.57;94862.81;6218406;23;20171;-88
2021/03/11 03:40:19;;;;;;;8.93;4.97;;;;;;;1.34;88.45;94871.16;6218139;23;20191;-88
2021/03/11 03:42:51;;;;;;;10.80;4.40;;;;;;;1.17;87.10;94875.44;6218033;23;20167;-88
2021/03/11 03:45:24;;;;;;;6.53;5.65;;;;;;;1.13;87.32;94866.13;6227974;23;20179;-88
2021/03/11 03:47:51;;;;;;;5.70;5.05;;;;;;;1.13;87.41;94873.03;6227118;23;20166;-87
2021/03/11 03:50:19;;;;;;;10.00;5.15;;;;;;;1.07;86.83;94874.19;6222541;23;20204;-87
2021/03/11 03:52:47;;;;;;;6.55;4.38;;;;;;;1.07;87.61;94876.75;6218773;23;20175;-89
2021/03/11 03:55:16;;;;;;;6.88;3.80;;;;;;;1.07;86.45;94879.34;6191952;23;20688;-89
2021/03/11 03:57:48;;;;;;;8.70;5.00;;;;;;;1.01;86.85;94874.47;6219273;23;20174;-89
2021/03/11 04:00:16;;;;;;;6.88;4.30;;;;;;;1.02;87.80;94870.97;6218804;23;20472;-89
2021/03/11 04:06:06;;;;;;;9.52;5.22;;;;;;;1.13;87.20;94868.72;6219743;23;20174;-90
2021/03/11 04:08:34;;;;;;;7.30;5.70;;;;;;;1.07;87.25;94874.19;6220670;23;20172;-89
2021/03/11 04:11:03;;;;;;;9.40;5.05;;;;;;;1.08;87.25;94885.34;6220917;23;20178;-90
2021/03/11 04:13:32;;;;;;;10.48;5.93;;;;;;;1.05;88.11;94888.91;6220657;23;20177;-89
2021/03/11 04:15:58;;;;;;;11.80;6.80;;;;;;;1.08;89.01;94893.94;6220720;23;20174;-89
2021/03/11 04:18:26;;;;;;;5.65;4.50;;;;;;;1.05;88.63;94888.09;6220695;23;20171;-90
2021/03/11 04:20:54;;;;;;;9.63;6.40;;;;;;;1.10;88.56;94888.69;6220395;23;20267;-89
2021/03/11 04:23:22;;;;;;;12.32;6.40;;;;;;;1.14;89.04;94896.22;6221048;23;20167;-89
2021/03/11 04:25:49;;;;;;;12.98;7.03;;;;;;;1.06;88.29;94907.84;6220522;23;20229;-90
2021/03/11 04:28:17;;;;;;;16.63;6.45;;;;;;;1.04;88.58;94907.91;6220528;23;20178;-90
2021/03/11 04:30:44;;;;;;;8.98;6.57;;;;;;;0.99;89.14;94904.72;6219848;23;20233;-89
2021/03/11 04:43:17;;;;;;;6.10;5.13;;;;;;;1.04;88.73;94912.25;6220282;23;20174;-89
2021/03/11 04:45:44;;;;;;;8.55;5.00;;;;;;;1.01;88.25;94920.16;6220115;23;20191;-89
2021/03/11 04:48:12;;;;;;;11.15;5.88;;;;;;;1.01;88.17;94927.91;6219876;23;20175;-89
2021/03/11 04:50:39;;;;;;;7.50;4.93;;;;;;;0.89;88.02;94926.75;6220052;23;20248;-89
2021/03/11 04:53:06;;;;;;;18.10;9.32;;;;;;;0.87;87.75;94924.22;6220801;23;20159;-89
2021/03/11 04:55:33;;;;;;;10.95;7.97;;;;;;;0.91;88.13;94933.50;6220311;23;20197;-90
2021/03/11 04:58:00;;;;;;;15.85;9.45;;;;;;;0.90;87.98;94936.16;6220424;23;20599;-88
2021/03/11 05:00:28;;;;;;;8.18;6.97;;;;;;;0.89;88.68;94939.66;6220068;23;20187;-89
2021/03/11 05:02:57;;;;;;;9.82;7.00;;;;;;;0.96;88.34;94935.03;6220745;23;20175;-89
2021/03/11 05:05:31;;;;;;;14.70;8.30;;;;;;;0.99;88.21;94937.47;6220313;23;20171;-90
2021/03/11 05:07:57;;;;;;;8.52;6.18;;;;;;;0.94;88.19;94940.28;6220704;23;20177;-88
2021/03/11 05:10:24;;;;;;;14.85;6.95;;;;;;;0.97;88.24;94944.47;6220142;23;20660;-89
2021/03/11 05:12:51;;;;;;;20.13;7.55;;;;;;;1.01;88.50;94945.97;6218950;23;20174;-88
2021/03/11 05:15:17;;;;;;;7.97;6.30;;;;;;;1.00;89.20;94958.06;6219936;23;20198;-89
2021/03/11 05:17:45;;;;;;;8.05;5.72;;;;;;;0.95;88.00;94952.28;6219442;23;20178;-86
2021/03/11 05:20:13;;;;;;;10.30;6.68;;;;;;;0.89;88.89;94952.56;6218885;23;20192;-89
2021/03/11 05:22:39;;;;;;;6.25;4.90;;;;;;;0.81;88.22;94954.66;6220524;23;20220;-90
2021/03/11 05:25:08;;;;;;;7.68;5.75;;;;;;;0.75;88.06;94954.94;6220170;23;20178;-88
2021/03/11 05:27:35;;;;;;;12.57;5.72;;;;;;;0.79;89.01;94964.22;6220480;23;20178;-90
2021/03/11 05:30:01;;;;;;;13.70;6.30;;;;;;;0.77;89.83;94960.88;6221183;23;20230;-88
2021/03/11 05:32:28;;;;;;;17.48;7.90;;;;;;;0.83;90.09;94969.16;6221445;23;20753;-88
2021/03/11 05:34:55;;;;;;;10.02;7.22;;;;;;;0.97;90.51;94965.97;6219181;23;20493;-87
2021/03/11 05:37:22;;;;;;;6.75;5.93;;;;;;;1.03;90.03;94965.66;6218997;23;20240;-87
2021/03/11 05:39:48;;;;;;;11.98;7.05;;;;;;;1.15;89.36;94974.59;6220214;23;20166;-85
2021/03/11 05:42:19;;;;;;;12.25;6.95;;;;;;;1.14;88.08;94975.50;6219725;23;20166;-86
2021/03/11 05:44:46;;;;;;;8.55;6.40;;;;;;;1.18;88.62;94974.47;6219596;23;20171;-92
2021/03/11 05:47:14;;;;;;;7.45;5.28;;;;;;;1.22;87.95;94987.16;6219734;23;20596;-86
2021/03/11 05:49:41;;;;;;;6.43;5.00;;;;;;;1.31;87.83;94990.22;6218938;23;20173;-86
2021/03/11 05:52:10;;;;;;;9.13;5.55;;;;;;;1.36;87.12;94986.50;6220611;23;20174;-85
2021/03/11 05:55:13;;;;;;;7.20;5.00;;;;;;;1.35;86.84;95000.34;6218665;23;20163;-84
2021/03/11 05:57:41;;;;;;;6.95;6.13;;;;;;;1.44;87.03;94994.72;6218455;23;20162;-84
2021/03/11 06:00:10;;;;;;;19.38;10.15;;;;;;;1.53;86.75;95001.22;6219530;23;20229;-90
2021/03/11 06:02:37;;;;;;;23.33;13.82;;;;;;;1.60;87.69;95002.59;6221142;23;20179;-88
2021/03/11 06:05:05;;;;;;;22.92;13.05;;;;;;;1.67;87.96;95009.13;6220568;23;20177;-85
2021/03/11 06:07:33;;;;;;;19.83;10.55;;;;;;;1.68;86.93;95018.56;6218961;23;20607;-83
2021/03/11 06:10:03;;;;;;;32.22;15.18;;;;;;;1.71;86.19;95017.59;6218522;23;20200;-83
2021/03/11 06:12:30;;;;;;;45.15;18.55;;;;;;;1.69;87.78;95022.84;6218713;23;20174;-87
2021/03/11 06:15:03;;;;;;;27.65;11.93;;;;;;;1.72;86.18;95034.78;6220308;23;20167;-87
2021/03/11 06:17:33;;;;;;;52.08;21.42;;;;;;;1.58;84.82;95038.03;6220490;23;20178;-81
2021/03/11 06:20:00;;;;;;;59.25;23.83;;;;;;;1.57;85.13;95048.47;6218216;23;20175;-81
2021/03/11 06:22:26;;;;;;;90.10;29.77;;;;;;;1.45;85.21;95053.31;6218836;23;20244;-85
2021/03/11 06:24:54;;;;;;;34.42;14.52;;;;;;;1.41;85.56;95054.34;6218124;23;20505;-83
2021/03/11 06:27:21;;;;;;;69.35;23.00;;;;;;;1.39;85.95;95063.91;6218186;23;20179;-84
2021/03/11 06:29:47;;;;;;;61.40;22.85;;;;;;;1.41;86.68;95066.41;6219941;23;20612;-80
2021/03/11 06:32:16;;;;;;;31.58;16.70;;;;;;;1.32;87.42;95069.44;6222044;23;20217;-92
2021/03/11 06:34:44;;;;;;;20.73;10.68;;;;;;;1.39;86.80;95068.25;6228062;23;20218;-93
2021/03/11 06:37:11;;;;;;;14.40;8.27;;;;;;;1.44;86.61;95082.63;6223249;23;20171;-90
2021/03/11 06:39:38;;;;;;;11.65;7.30;;;;;;;1.36;85.97;95095.06;6221616;23;20250;-89
2021/03/11 06:42:08;;;;;;;10.68;7.22;;;;;;;1.27;85.61;95092.91;6222151;23;20198;-90
2021/03/11 06:44:39;;;;;;;8.23;5.25;;;;;;;1.18;85.50;95104.53;6222280;23;20175;-89
2021/03/11 06:47:06;;;;;;;8.70;5.15;;;;;;;1.15;86.35;95106.38;6221694;23;20181;-90
2021/03/11 06:49:33;;;;;;;4.90;4.40;;;;;;;1.11;86.17;95107.41;6221478;23;20601;-90
2021/03/11 06:52:14;;;;;;;10.52;6.30;;;;;;;1.20;86.70;95109.63;6222104;23;20599;-90
2021/03/11 06:54:53;;;;;;;7.70;6.15;;;;;;;1.29;86.48;95110.94;6223195;23;20170;-90
2021/03/11 06:57:32;;;;;;;6.75;5.45;;;;;;;1.20;85.27;95119.97;6221256;23;20173;-89
2021/03/11 06:59:59;;;;;;;7.65;5.85;;;;;;;1.26;85.90;95131.75;6222412;23;20167;-90
2021/03/11 07:02:27;;;;;;;6.45;5.50;;;;;;;1.34;85.64;95134.81;6221889;23;20213;-89
2021/03/11 07:04:54;;;;;;;5.55;5.05;;;;;;;1.24;86.24;95147.34;6223248;23;20170;-90
2021/03/11 07:07:23;;;;;;;8.30;6.25;;;;;;;1.23;85.90;95154.25;6222423;23;20179;-91
2021/03/11 07:09:52;;;;;;;13.65;6.90;;;;;;;1.30;86.94;95156.56;6222347;23;20171;-89
2021/03/11 07:12:19;;;;;;;9.95;6.28;;;;;;;1.31;86.50;95150.47;6194797;23;20638;-90
2021/03/11 07:14:49;;;;;;;8.60;5.72;;;;;;;1.12;86.46;95140.09;6222369;23;20171;-90
2021/03/11 07:17:24;;;;;;;12.35;6.55;;;;;;;1.15;86.17;95142.56;6224216;23;20175;-90
2021/03/11 07:20:09;;;;;;;11.52;6.90;;;;;;;1.19;86.86;95151.88;6222079;23;20182;-89
2021/03/11 07:22:36;;;;;;;15.88;7.95;;;;;;;1.35;85.70;95146.84;6221802;23;20173;-89
2021/03/11 07:25:03;;;;;;;19.67;10.15;;;;;;;1.27;86.64;95148.94;6220483;23;20183;-90
2021/03/11 07:27:40;;;;;;;12.40;6.50;;;;;;;1.42;85.56;95168.94;6222113;23;20468;-91
2021/03/11 07:30:09;;;;;;;10.50;4.95;;;;;;;1.32;84.64;95167.66;6221478;23;20177;-90
2021/03/11 07:32:36;;;;;;;9.73;5.95;;;;;;;1.45;85.47;95164.47;6171326;23;20224;-90
2021/03/11 07:35:03;;;;;;;9.20;6.95;;;;;;;1.36;85.09;95164.03;6224282;23;20183;-90
2021/03/11 07:37:33;;;;;;;15.43;7.32;;;;;;;1.54;85.47;95169.22;6224279;23;20171;-90
2021/03/11 07:40:00;;;;;;;13.73;7.50;;;;;;;1.34;85.57;95171.03;6225917;23;20246;-90
2021/03/11 07:42:28;;;;;;;7.97;4.63;;;;;;;1.42;85.83;95179.25;6225152;23;20174;-90
2021/03/11 07:44:56;;;;;;;9.65;5.70;;;;;;;1.55;85.09;95180.41;6221370;23;20198;-89
2021/03/11 07:47:24;;;;;;;7.10;4.50;;;;;;;1.60;84.48;95180.19;6220784;23;20603;-88
2021/03/11 07:49:51;;;;;;;9.60;6.60;;;;;;;1.75;83.83;95190.69;6221774;23;20229;-89
2021/03/11 07:52:18;;;;;;;6.53;5.90;;;;;;;1.65;83.52;95192.00;6220749;23;20243;-88
2021/03/11 07:54:45;;;;;;;8.90;6.50;;;;;;;1.64;83.40;95187.75;6222050;23;20220;-88
2021/03/11 07:57:11;;;;;;;6.78;3.92;;;;;;;1.59;83.29;95196.63;6223944;23;20202;-89
2021/03/11 07:59:58;;;;;;;4.25;3.55;;;;;;;1.63;82.21;95201.59;6221950;23;20249;-88
2021/03/11 08:02:27;;;;;;;8.90;5.32;;;;;;;1.53;83.49;95203.75;6163004;23;20214;-89
2021/03/11 08:04:54;;;;;;;8.07;5.43;;;;;;;1.57;83.02;95208.78;6161193;23;20257;-87
2021/03/11 08:07:22;;;;;;;23.13;15.88;;;;;;;1.71;84.38;95222.75;6164833;23;20172;-90
2021/03/11 08:09:50;;;;;;;9.82;6.35;;;;;;;1.69;85.23;95208.22;6161859;23;20696;-89
2021/03/11 08:12:31;;;;;;;5.90;4.90;;;;;;;1.67;83.81;95225.56;6158966;23;20586;-89
2021/03/11 08:14:59;;;;;;;7.72;6.72;;;;;;;1.66;84.49;95226.47;6159222;23;20173;-88
2021/03/11 08:17:56;;;;;;;5.68;4.78;;;;;;;1.65;84.24;95230.81;6160408;23;20172;-89
2021/03/11 08:20:39;;;;;;;8.63;6.60;;;;;;;1.69;82.65;95239.25;6185014;23;20694;-88
2021/03/11 08:23:06;;;;;;;10.10;6.38;;;;;;;1.76;82.11;95231.19;6222051;23;20171;-88
2021/03/11 08:25:54;;;;;;;20.45;11.10;;;;;;;1.93;82.47;95237.31;6219876;23;20642;-89
2021/03/11 08:28:47;;;;;;;7.38;4.95;;;;;;;1.93;80.41;95239.91;6159137;23;20173;-88
2021/03/11 08:31:15;;;;;;;9.40;6.65;;;;;;;1.98;80.15;95235.34;6159645;23;20227;-88
2021/03/11 08:33:57;;;;;;;5.93;4.90;;;;;;;1.99;79.10;95244.81;6157751;23;20233;-89
2021/03/11 08:36:33;;;;;;;8.65;5.60;;;;;;;2.07;78.30;95243.56;6157347;23;20226;-88
2021/03/11 08:39:01;;;;;;;12.93;6.60;;;;;;;1.99;79.85;95244.81;6158064;23;20171;-88
2021/03/11 08:41:33;;;;;;;12.82;7.65;;;;;;;2.00;78.68;95254.25;6157336;23;20193;-88
2021/03/11 08:44:02;;;;;;;15.65;10.60;;;;;;;2.09;78.41;95252.09;6157380;23;20172;-88
2021/03/11 08:46:48;;;;;;;17.77;10.68;;;;;;;2.23;79.15;95266.97;6158325;23;20176;-88
2021/03/11 08:49:37;;;;;;;78.70;30.88;;;;;;;2.22;80.29;95259.28;6161115;23;20265;-88
2021/03/11 08:52:04;;;;;;;14.13;7.60;;;;;;;2.34;79.46;95259.56;6160282;23;20176;-88
2021/03/11 08:54:31;;;;;;;40.15;17.45;;;;;;;2.40;78.93;95251.50;6163185;23;20283;-88
2021/03/11 08:56:57;;;;;;;23.70;11.43;;;;;;;2.47;78.99;95263.25;6159418;23;20223;-87
2021/03/11 08:59:43;;;;;;;7.40;6.70;;;;;;;2.63;78.31;95259.94;6163047;23;20173;-89
2021/03/11 09:02:31;;;;;;;20.20;10.90;;;;;;;2.68;79.57;95258.81;6160236;23;20196;-88
2021/03/11 09:04:59;;;;;;;5.55;4.78;;;;;;;2.64;77.22;95262.44;6184902;23;20250;-88
2021/03/11 09:07:31;;;;;;;6.13;4.53;;;;;;;2.74;77.06;95271.44;6221812;23;20242;-89
2021/03/11 09:09:58;;;;;;;8.77;3.83;;;;;;;2.95;76.65;95271.34;6221879;23;20194;-90
2021/03/11 09:12:32;;;;;;;10.35;6.75;;;;;;;3.07;75.33;95268.97;6221903;23;20497;-89
2021/03/11 09:15:01;;;;;;;11.87;7.93;;;;;;;3.23;75.10;95274.25;6222549;23;20258;-88
2021/03/11 09:17:29;;;;;;;10.23;6.57;;;;;;;3.21;74.72;95277.81;6221920;23;20413;-88
2021/03/11 09:20:00;;;;;;;12.30;7.60;;;;;;;3.26;74.12;95279.28;6223820;23;20433;-89
2021/03/11 09:22:30;;;;;;;13.57;7.83;;;;;;;3.29;76.34;95288.66;6221532;23;20501;-88
2021/03/11 09:25:00;;;;;;;12.10;7.40;;;;;;;3.29;76.15;95286.06;6220863;23;20424;-88
2021/03/11 09:27:28;;;;;;;5.80;4.47;;;;;;;3.27;73.99;95287.88;6222421;23;20417;-88
2021/03/11 09:29:55;;;;;;;8.03;5.33;;;;;;;3.31;74.93;95290.25;6223104;23;20413;-88
2021/03/11 09:32:26;;;;;;;4.70;4.10;;;;;;;3.05;73.38;95283.75;6221485;23;20410;-87
2021/03/11 09:34:57;;;;;;;5.45;4.95;;;;;;;3.18;74.99;95289.19;6221146;23;20249;-88
2021/03/11 09:37:47;;;;;;;6.30;5.57;;;;;;;3.31;75.81;95295.44;6221602;23;20194;-88
2021/03/11 09:40:17;;;;;;;12.53;6.40;;;;;;;3.35;74.85;95293.53;6220740;23;20763;-88
2021/03/11 09:43:20;;;;;;;7.57;6.78;;;;;;;3.19;74.47;95297.81;6219936;23;20398;-87
2021/03/11 09:45:49;;;;;;;7.87;5.63;;;;;;;3.11;75.64;95285.19;6157152;23;20176;-87
2021/03/11 09:48:18;;;;;;;8.53;6.47;;;;;;;3.18;76.51;95288.31;6156709;23;20801;-87
2021/03/11 09:51:09;;;;;;;12.00;7.80;;;;;;;3.28;75.75;95294.75;6106817;23;20435;-88
2021/03/11 09:53:39;;;;;;;5.63;5.13;;;;;;;3.24;74.83;95298.41;6039244;23;20426;-88
2021/03/11 09:56:07;;;;;;;6.33;5.43;;;;;;;3.30;74.78;95305.88;6039812;23;20481;-89
2021/03/11 09:58:33;;;;;;;10.10;6.90;;;;;;;3.34;74.88;95315.19;6041914;23;20419;-88
2021/03/11 10:01:00;;;;;;;4.87;4.30;;;;;;;3.29;74.49;95307.63;6042464;23;20447;-88
2021/03/11 10:03:27;;;;;;;6.97;5.23;;;;;;;3.47;75.00;95302.44;6042687;23;20404;-89
2021/03/11 10:05:59;;;;;;;10.13;8.20;;;;;;;3.47;74.77;95308.50;6042928;23;20415;-89
2021/03/11 10:08:28;;;;;;;9.23;5.50;;;;;;;3.38;74.24;95308.94;6049212;23;20395;-88
2021/03/11 10:11:15;;;;;;;10.63;7.03;;;;;;;3.17;76.20;95300.44;6041580;23;20419;-88
2021/03/11 10:13:47;;;;;;;9.37;6.30;;;;;;;3.13;76.67;95305.88;6041431;23;20763;-88
2021/03/11 10:16:14;;;;;;;9.37;6.53;;;;;;;3.19;76.98;95310.78;6040982;23;20404;-87
2021/03/11 10:18:58;;;;;;;6.30;5.00;;;;;;;3.11;77.32;95309.38;6046843;23;20531;-88
2021/03/11 10:21:25;;;;;;;12.33;6.97;;;;;;;3.11;76.86;95311.97;6127857;23;20436;-88
2021/03/11 10:23:51;;;;;;;12.30;8.30;;;;;;;3.20;77.54;95317.63;6127747;23;20420;-89
2021/03/11 10:26:21;;;;;;;11.90;6.83;;;;;;;3.05;75.97;95319.22;6127774;23;20423;-88
2021/03/11 10:28:50;;;;;;;22.10;12.73;;;;;;;2.98;78.02;95318.69;6128121;23;20401;-89
2021/03/11 10:31:17;;;;;;;14.40;6.70;;;;;;;2.92;77.65;95329.34;6220632;23;20742;-88
2021/03/11 10:33:44;;;;;;;12.23;7.90;;;;;;;3.08;77.68;95329.44;6218996;23;20464;-88
2021/03/11 10:36:14;;;;;;;22.80;11.32;;;;;;;3.08;78.14;95324.25;6219729;23;20403;-89
2021/03/11 10:38:41;;;;;;;17.23;9.20;;;;;;;3.16;77.83;95329.03;6221024;23;20335;-89
2021/03/11 10:41:17;;;;;;;11.35;7.57;;;;;;;3.27;77.76;95337.16;6219526;23;20274;-89
2021/03/11 10:43:45;;;;;;;10.40;6.53;;;;;;;3.07;76.33;95332.94;6220351;23;20205;-89
2021/03/11 10:46:15;;;;;;;14.65;8.32;;;;;;;3.20;76.39;95344.41;6219945;23;20401;-88
2021/03/11 10:48:49;;;;;;;20.37;11.63;;;;;;;3.16;77.21;95347.19;6219468;23;20531;-89
2021/03/11 10:51:18;;;;;;;7.45;5.88;;;;;;;2.78;76.21;95348.13;6219735;23;20541;-88
2021/03/11 10:53:45;;;;;;;7.77;6.50;;;;;;;2.67;76.50;95352.13;6221638;23;20221;-90
2021/03/11 10:56:12;;;;;;;16.98;9.68;;;;;;;2.68;77.93;95351.22;6219486;23;20424;-90
2021/03/11 10:58:39;;;;;;;10.75;7.40;;;;;;;2.64;78.18;95352.28;6219638;23;20170;-89
2021/03/11 11:01:08;;;;;;;23.33;14.25;;;;;;;2.68;79.33;95352.06;6217526;23;20190;-84
2021/03/11 11:03:35;;;;;;;23.50;11.55;;;;;;;2.72;79.35;95351.00;6217575;23;20169;-84
2021/03/11 11:06:01;;;;;;;20.65;13.60;;;;;;;2.75;78.54;95357.78;6218542;23;20490;-82
2021/03/11 11:08:28;;;;;;;13.23;7.50;;;;;;;2.72;78.16;95363.13;6218836;23;20246;-83
2021/03/11 11:10:54;;;;;;;28.55;13.23;;;;;;;2.60;78.82;95364.53;6217492;23;20176;-83
2021/03/11 11:13:21;;;;;;;29.67;13.18;;;;;;;2.62;78.48;95365.31;6217102;23;20170;-84
2021/03/11 11:15:47;;;;;;;12.13;8.70;;;;;;;2.66;78.35;95351.31;6217251;23;20177;-84
2021/03/11 11:18:15;;;;;;;9.50;7.60;;;;;;;2.73;78.88;95352.69;6221833;23;20472;-87
2021/03/11 11:20:41;;;;;;;11.40;7.97;;;;;;;2.83;78.47;95345.31;6221497;23;20452;-88
2021/03/11 11:23:08;;;;;;;13.03;9.20;;;;;;;2.90;78.69;95351.06;6218852;23;20467;-92
2021/03/11 11:25:35;;;;;;;14.45;7.30;;;;;;;3.00;77.04;95358.31;6219392;23;20433;-93
2021/03/11 11:28:01;;;;;;;13.17;9.83;;;;;;;2.96;75.82;95341.25;6222045;23;20167;-93
2021/03/11 11:30:29;;;;;;;8.90;7.93;;;;;;;3.10;75.03;95348.34;6220720;23;20428;-91
2021/03/11 11:32:55;;;;;;;14.37;8.30;;;;;;;3.17;74.75;95364.44;6219768;23;20189;-93
2021/03/11 11:35:24;;;;;;;14.53;8.10;;;;;;;3.32;75.46;95356.75;6219340;23;20414;-91
2021/03/11 11:37:51;;;;;;;6.68;5.72;;;;;;;3.31;74.70;95346.47;6220020;23;20414;-92
2021/03/11 11:40:18;;;;;;;10.37;6.30;;;;;;;3.35;73.50;95345.41;6220775;23;20507;-90
2021/03/11 11:42:45;;;;;;;15.10;9.70;;;;;;;3.35;74.13;95328.06;6220238;23;20448;-92
2021/03/11 11:45:17;;;;;;;12.20;8.33;;;;;;;3.37;74.22;95328.84;6221384;23;20179;-93
2021/03/11 11:47:44;;;;;;;9.50;5.60;;;;;;;3.40;73.07;95330.44;6222470;23;20414;-92
2021/03/11 11:50:13;;;;;;;6.37;5.70;;;;;;;3.53;73.30;95334.13;6220321;23;20434;-94
2021/03/11 11:52:41;;;;;;;7.90;5.97;;;;;;;3.63;73.78;95339.66;6220549;23;20414;-92
2021/03/11 11:55:10;;;;;;;8.67;4.53;;;;;;;3.65;73.28;95335.25;6220556;23;20409;-92
2021/03/11 11:57:37;;;;;;;9.33;7.07;;;;;;;3.95;74.12;95330.22;6167427;23;20468;-91
2021/03/11 12:00:04;;;;;;;6.93;6.00;;;;;;;4.11;73.33;95333.72;6219153;23;20414;-91
2021/03/11 12:02:31;;;;;;;12.00;6.67;;;;;;;4.27;72.54;95331.13;6218919;23;20442;-85
2021/03/11 12:04:58;;;;;;;7.77;6.73;;;;;;;4.52;72.48;95328.06;6219767;23;20409;-94